createdAt,value
2017-07-30T00:00:13.288Z,1009.75
2017-07-30T00:01:13.314Z,1009.72
2017-07-30T00:02:13.353Z,1009.75
2017-07-30T00:03:13.388Z,1009.71
2017-07-30T00:04:13.420Z,1009.74
2017-07-30T00:05:13.461Z,1009.65
2017-07-30T00:06:13.510Z,1009.67
2017-07-30T00:07:13.528Z,1009.65
2017-07-30T00:08:13.560Z,1009.64
2017-07-30T00:09:13.601Z,1009.63
2017-07-30T00:10:13.633Z,1009.59
2017-07-30T00:11:13.671Z,1009.57
2017-07-30T00:12:13.704Z,1009.59
2017-07-30T00:13:13.743Z,1009.6
2017-07-30T00:14:13.782Z,1009.56
2017-07-30T00:15:13.806Z,1009.65
2017-07-30T00:16:13.847Z,1009.65
2017-07-30T00:17:13.861Z,1009.62
2017-07-30T00:18:13.921Z,1009.62
2017-07-30T00:19:13.954Z,1009.55
2017-07-30T00:20:13.987Z,1009.58
2017-07-30T00:21:13.999Z,1009.63
2017-07-30T00:22:14.111Z,1009.6
2017-07-30T00:23:14.091Z,1009.66
2017-07-30T00:24:14.119Z,1009.61
2017-07-30T00:25:14.165Z,1009.58
2017-07-30T00:26:14.201Z,1009.61
2017-07-30T00:27:14.235Z,1009.6
2017-07-30T00:28:14.267Z,1009.63
2017-07-30T00:29:14.304Z,1009.61
2017-07-30T00:30:14.342Z,1009.61
2017-07-30T00:31:14.385Z,1009.56
2017-07-30T00:32:14.411Z,1009.55
2017-07-30T00:33:14.448Z,1009.51
2017-07-30T00:34:14.483Z,1009.52
2017-07-30T00:35:14.516Z,1009.53
2017-07-30T00:36:14.553Z,1009.48
2017-07-30T00:37:14.588Z,1009.47
2017-07-30T00:38:14.600Z,1009.41
2017-07-30T00:39:14.656Z,1009.45
2017-07-30T00:40:14.695Z,1009.43
2017-07-30T00:41:14.723Z,1009.43
2017-07-30T00:42:14.767Z,1009.41
2017-07-30T00:43:14.800Z,1009.39
2017-07-30T00:44:14.813Z,1009.39
2017-07-30T00:45:14.868Z,1009.44
2017-07-30T00:46:14.910Z,1009.49
2017-07-30T00:47:14.935Z,1009.41
2017-07-30T00:48:14.969Z,1009.45
2017-07-30T00:49:15.010Z,1009.49
2017-07-30T00:50:15.142Z,1009.48
2017-07-30T00:51:15.060Z,1009.47
2017-07-30T00:52:15.114Z,1009.43
2017-07-30T00:53:15.149Z,1009.37
2017-07-30T00:54:15.183Z,1009.38
2017-07-30T00:55:15.199Z,1009.39
2017-07-30T00:56:15.253Z,1009.36
2017-07-30T00:57:15.293Z,1009.37
2017-07-30T00:58:15.327Z,1009.4
2017-07-30T00:59:15.343Z,1009.44
2017-07-30T01:00:15.393Z,1009.45
2017-07-30T01:01:15.431Z,1009.45
2017-07-30T01:02:15.458Z,1009.44
2017-07-30T01:03:15.499Z,1009.4
2017-07-30T01:04:15.533Z,1009.41
2017-07-30T01:05:15.565Z,1009.4
2017-07-30T01:06:15.602Z,1009.4
2017-07-30T01:07:15.635Z,1009.4
2017-07-30T01:08:15.677Z,1009.36
2017-07-30T01:09:15.713Z,1009.44
2017-07-30T01:10:15.743Z,1009.44
2017-07-30T01:11:15.784Z,1009.49
2017-07-30T01:12:15.812Z,1009.47
2017-07-30T01:13:15.835Z,1009.39
2017-07-30T01:14:15.883Z,1009.42
2017-07-30T01:15:15.921Z,1009.45
2017-07-30T01:16:15.958Z,1009.45
2017-07-30T01:17:15.992Z,1009.42
2017-07-30T01:18:16.033Z,1009.41
2017-07-30T01:19:16.062Z,1009.38
2017-07-30T01:20:16.096Z,1009.36
2017-07-30T01:21:16.130Z,1009.34
2017-07-30T01:22:16.165Z,1009.27
2017-07-30T01:23:16.198Z,1009.24
2017-07-30T01:24:16.238Z,1009.26
2017-07-30T01:25:16.269Z,1009.2
2017-07-30T01:26:16.307Z,1009.25
2017-07-30T01:27:16.319Z,1009.24
2017-07-30T01:28:16.377Z,1009.21
2017-07-30T01:29:16.413Z,1009.28
2017-07-30T01:30:16.442Z,1009.22
2017-07-30T01:31:16.478Z,1009.25
2017-07-30T01:32:16.517Z,1009.2
2017-07-30T01:33:16.537Z,1009.23
2017-07-30T01:34:16.612Z,1009.17
2017-07-30T01:35:16.611Z,1009.13
2017-07-30T01:36:16.655Z,1009.07
2017-07-30T01:37:16.688Z,1009.04
2017-07-30T01:38:16.723Z,1009.04
2017-07-30T01:39:16.760Z,1009.04
2017-07-30T01:40:16.797Z,1009.06
2017-07-30T01:41:16.828Z,1009.1
2017-07-30T01:42:16.867Z,1009.09
2017-07-30T01:43:16.896Z,1009.14
2017-07-30T01:44:16.937Z,1009.13
2017-07-30T01:45:16.967Z,1009.08
2017-07-30T01:46:17.004Z,1009.05
2017-07-30T01:47:17.039Z,1009.02
2017-07-30T01:48:17.084Z,1009.01
2017-07-30T01:49:17.089Z,1008.93
2017-07-30T01:50:17.140Z,1008.95
2017-07-30T01:51:17.179Z,1008.93
2017-07-30T01:52:17.214Z,1008.91
2017-07-30T01:53:17.247Z,1008.9
2017-07-30T01:54:17.284Z,1008.88
2017-07-30T01:55:17.316Z,1008.85
2017-07-30T01:56:17.354Z,1008.9
2017-07-30T01:57:17.388Z,1008.9
2017-07-30T01:58:17.422Z,1008.88
2017-07-30T01:59:17.433Z,1008.93
2017-07-30T02:00:17.494Z,1008.93
2017-07-30T02:01:17.527Z,1008.92
2017-07-30T02:02:17.545Z,1008.94
2017-07-30T02:03:17.591Z,1008.95
2017-07-30T02:04:17.632Z,1008.91
2017-07-30T02:05:17.666Z,1008.94
2017-07-30T02:06:17.723Z,1008.87
2017-07-30T02:07:17.733Z,1008.84
2017-07-30T02:08:17.770Z,1008.78
2017-07-30T02:09:17.805Z,1008.84
2017-07-30T02:10:17.831Z,1008.82
2017-07-30T02:11:17.880Z,1008.83
2017-07-30T02:12:17.908Z,1008.94
2017-07-30T02:13:17.947Z,1008.86
2017-07-30T02:14:17.978Z,1008.89
2017-07-30T02:15:18.015Z,1008.87
2017-07-30T02:16:18.047Z,1008.92
2017-07-30T02:17:18.086Z,1008.89
2017-07-30T02:18:18.118Z,1008.9
2017-07-30T02:19:18.151Z,1008.86
2017-07-30T02:20:18.190Z,1008.82
2017-07-30T02:21:18.220Z,1008.74
2017-07-30T02:22:18.236Z,1008.76
2017-07-30T02:23:18.289Z,1008.74
2017-07-30T02:24:18.326Z,1008.75
2017-07-30T02:25:18.340Z,1008.74
2017-07-30T02:26:18.394Z,1008.81
2017-07-30T02:27:18.431Z,1008.83
2017-07-30T02:28:18.448Z,1008.83
2017-07-30T02:29:18.485Z,1008.83
2017-07-30T02:30:18.535Z,1008.73
2017-07-30T02:31:18.570Z,1008.78
2017-07-30T02:32:18.601Z,1008.73
2017-07-30T02:33:18.642Z,1008.72
2017-07-30T02:34:18.655Z,1008.75
2017-07-30T02:35:18.708Z,1008.75
2017-07-30T02:36:18.739Z,1008.77
2017-07-30T02:37:18.779Z,1008.77
2017-07-30T02:38:18.817Z,1008.77
2017-07-30T02:39:18.847Z,1008.78
2017-07-30T02:40:18.863Z,1008.79
2017-07-30T02:41:18.915Z,1008.75
2017-07-30T02:42:18.951Z,1008.72
2017-07-30T02:43:18.983Z,1008.72
2017-07-30T02:44:19.018Z,1008.71
2017-07-30T02:45:19.053Z,1008.75
2017-07-30T02:46:19.072Z,1008.69
2017-07-30T02:47:19.123Z,1008.66
2017-07-30T02:48:19.158Z,1008.63
2017-07-30T02:49:19.195Z,1008.64
2017-07-30T02:50:19.238Z,1008.63
2017-07-30T02:51:19.247Z,1008.6
2017-07-30T02:52:19.297Z,1008.6
2017-07-30T02:53:19.334Z,1008.59
2017-07-30T02:54:19.347Z,1008.56
2017-07-30T02:55:19.401Z,1008.53
2017-07-30T02:56:19.435Z,1008.52
2017-07-30T02:57:19.470Z,1008.6
2017-07-30T02:58:19.500Z,1008.58
2017-07-30T02:59:19.541Z,1008.59
2017-07-30T03:00:19.574Z,1008.61
2017-07-30T03:01:19.586Z,1008.63
2017-07-30T03:02:19.640Z,1008.64
2017-07-30T03:03:19.673Z,1008.68
2017-07-30T03:04:19.713Z,1008.63
2017-07-30T03:05:19.741Z,1008.64
2017-07-30T03:06:19.777Z,1008.67
2017-07-30T03:07:19.817Z,1008.68
2017-07-30T03:08:19.846Z,1008.68
2017-07-30T03:09:19.876Z,1008.68
2017-07-30T03:10:19.914Z,1008.64
2017-07-30T03:11:19.952Z,1008.59
2017-07-30T03:12:19.984Z,1008.69
2017-07-30T03:13:19.995Z,1008.69
2017-07-30T03:14:20.053Z,1008.7
2017-07-30T03:15:20.091Z,1008.7
2017-07-30T03:16:20.107Z,1008.72
2017-07-30T03:17:20.155Z,1008.64
2017-07-30T03:18:20.188Z,1008.64
2017-07-30T03:19:20.225Z,1008.59
2017-07-30T03:20:20.241Z,1008.57
2017-07-30T03:21:20.297Z,1008.52
2017-07-30T03:22:20.336Z,1008.52
2017-07-30T03:23:20.365Z,1008.46
2017-07-30T03:24:20.398Z,1008.5
2017-07-30T03:25:20.433Z,1008.47
2017-07-30T03:26:20.473Z,1008.47
2017-07-30T03:27:20.501Z,1008.46
2017-07-30T03:28:20.538Z,1008.53
2017-07-30T03:29:20.573Z,1008.49
2017-07-30T03:30:20.607Z,1008.47
2017-07-30T03:31:20.644Z,1008.48
2017-07-30T03:32:20.673Z,1008.47
2017-07-30T03:33:20.709Z,1008.46
2017-07-30T03:34:20.742Z,1008.49
2017-07-30T03:35:20.778Z,1008.52
2017-07-30T03:36:20.813Z,1008.44
2017-07-30T03:37:20.850Z,1008.47
2017-07-30T03:38:20.883Z,1008.46
2017-07-30T03:39:20.915Z,1008.45
2017-07-30T03:40:20.948Z,1008.42
2017-07-30T03:41:20.985Z,1008.4
2017-07-30T03:42:20.997Z,1008.35
2017-07-30T03:43:21.051Z,1008.41
2017-07-30T03:44:21.094Z,1008.38
2017-07-30T03:45:21.101Z,1008.39
2017-07-30T03:46:21.145Z,1008.38
2017-07-30T03:47:21.189Z,1008.35
2017-07-30T03:48:21.227Z,1008.35
2017-07-30T03:49:21.248Z,1008.33
2017-07-30T03:50:21.291Z,1008.3
2017-07-30T03:51:21.320Z,1008.32
2017-07-30T03:52:21.346Z,1008.38
2017-07-30T03:53:21.399Z,1008.41
2017-07-30T03:54:21.437Z,1008.44
2017-07-30T03:55:21.471Z,1008.45
2017-07-30T03:56:21.502Z,1008.41
2017-07-30T03:57:21.538Z,1008.43
2017-07-30T03:58:21.568Z,1008.44
2017-07-30T03:59:21.606Z,1008.45
2017-07-30T04:00:21.641Z,1008.5
2017-07-30T04:01:21.673Z,1008.47
2017-07-30T04:02:21.706Z,1008.51
2017-07-30T04:03:21.742Z,1008.46
2017-07-30T04:04:21.757Z,1008.46
2017-07-30T04:05:21.913Z,1008.49
2017-07-30T04:06:21.849Z,1008.44
2017-07-30T04:07:21.881Z,1008.43
2017-07-30T04:08:21.914Z,1008.39
2017-07-30T04:09:21.949Z,1008.33
2017-07-30T04:10:21.984Z,1008.32
2017-07-30T04:11:22.021Z,1008.34
2017-07-30T04:12:22.052Z,1008.32
2017-07-30T04:13:22.107Z,1008.29
2017-07-30T04:14:22.126Z,1008.26
2017-07-30T04:15:22.135Z,1008.29
2017-07-30T04:16:22.178Z,1008.26
2017-07-30T04:17:22.230Z,1008.25
2017-07-30T04:18:22.264Z,1008.22
2017-07-30T04:19:22.298Z,1008.23
2017-07-30T04:20:22.333Z,1008.24
2017-07-30T04:21:22.372Z,1008.31
2017-07-30T04:22:22.401Z,1008.29
2017-07-30T04:23:22.438Z,1008.28
2017-07-30T04:24:22.476Z,1008.3
2017-07-30T04:25:22.506Z,1008.28
2017-07-30T04:26:22.540Z,1008.27
2017-07-30T04:27:22.578Z,1008.24
2017-07-30T04:28:22.612Z,1008.23
2017-07-30T04:29:22.648Z,1008.27
2017-07-30T04:30:22.677Z,1008.23
2017-07-30T04:31:22.719Z,1008.27
2017-07-30T04:32:22.746Z,1008.28
2017-07-30T04:33:22.779Z,1008.27
2017-07-30T04:34:22.817Z,1008.29
2017-07-30T04:35:22.854Z,1008.31
2017-07-30T04:36:22.886Z,1008.25
2017-07-30T04:37:22.925Z,1008.18
2017-07-30T04:38:22.962Z,1008.19
2017-07-30T04:39:22.977Z,1008.22
2017-07-30T04:40:23.030Z,1008.18
2017-07-30T04:41:23.067Z,1008.18
2017-07-30T04:42:23.099Z,1008.18
2017-07-30T04:43:23.132Z,1008.19
2017-07-30T04:44:23.169Z,1008.13
2017-07-30T04:45:23.207Z,1008.16
2017-07-30T04:46:23.239Z,1008.13
2017-07-30T04:47:23.277Z,1008.17
2017-07-30T04:48:23.309Z,1008.19
2017-07-30T04:49:23.347Z,1008.15
2017-07-30T04:50:23.381Z,1008.18
2017-07-30T04:51:23.402Z,1008.21
2017-07-30T04:52:23.447Z,1008.23
2017-07-30T04:53:23.470Z,1008.25
2017-07-30T04:54:23.522Z,1008.2
2017-07-30T04:55:23.553Z,1008.21
2017-07-30T04:56:23.589Z,1008.21
2017-07-30T04:57:23.625Z,1008.08
2017-07-30T04:58:23.665Z,1008.11
2017-07-30T04:59:23.694Z,1008.07
2017-07-30T05:00:23.730Z,1008.06
2017-07-30T05:01:23.764Z,1008.06
2017-07-30T05:02:23.800Z,1008.09
2017-07-30T05:03:23.834Z,1008.11
2017-07-30T05:04:23.869Z,1008.08
2017-07-30T05:05:23.887Z,1008.08
2017-07-30T05:06:23.947Z,1008.06
2017-07-30T05:07:23.976Z,1008.06
2017-07-30T05:08:24.001Z,1008.07
2017-07-30T05:09:24.048Z,1008.02
2017-07-30T05:10:24.453Z,1008.02
2017-07-30T05:11:24.125Z,1008.06
2017-07-30T05:12:24.138Z,1008.1
2017-07-30T05:13:24.191Z,1008.08
2017-07-30T05:14:24.202Z,1008.09
2017-07-30T05:15:24.259Z,1008.13
2017-07-30T05:16:24.307Z,1008.13
2017-07-30T05:17:24.328Z,1008.19
2017-07-30T05:18:24.368Z,1008.19
2017-07-30T05:19:24.401Z,1008.2
2017-07-30T05:20:24.441Z,1008.22
2017-07-30T05:21:24.479Z,1008.2
2017-07-30T05:22:24.505Z,1008.14
2017-07-30T05:23:24.526Z,1008.17
2017-07-30T05:24:24.580Z,1008.19
2017-07-30T05:25:24.625Z,1008.2
2017-07-30T05:26:24.652Z,1008.16
2017-07-30T05:27:24.689Z,1008.12
2017-07-30T05:28:24.714Z,1008.17
2017-07-30T05:29:24.759Z,1008.15
2017-07-30T05:30:24.804Z,1008.07
2017-07-30T05:31:24.828Z,1008.01
2017-07-30T05:32:24.882Z,1008.04
2017-07-30T05:33:24.905Z,1008.04
2017-07-30T05:34:24.943Z,1007.99
2017-07-30T05:35:24.966Z,1007.97
2017-07-30T05:36:25.014Z,1008
2017-07-30T05:37:25.045Z,1008.08
2017-07-30T05:38:25.087Z,1007.98
2017-07-30T05:39:25.123Z,1007.89
2017-07-30T05:40:25.155Z,1007.88
2017-07-30T05:41:25.195Z,1007.88
2017-07-30T05:42:25.222Z,1007.89
2017-07-30T05:43:25.266Z,1007.88
2017-07-30T05:44:25.303Z,1007.7
2017-07-30T05:45:25.325Z,1007.72
2017-07-30T05:46:25.379Z,1007.7
2017-07-30T05:47:25.411Z,1007.71
2017-07-30T05:48:25.455Z,1007.7
2017-07-30T05:49:25.489Z,1007.77
2017-07-30T05:50:25.530Z,1007.77
2017-07-30T05:51:25.564Z,1007.77
2017-07-30T05:52:25.582Z,1007.75
2017-07-30T05:53:25.659Z,1007.83
2017-07-30T05:54:25.672Z,1007.83
2017-07-30T05:55:25.715Z,1007.76
2017-07-30T05:56:25.750Z,1007.78
2017-07-30T05:57:25.786Z,1007.8
2017-07-30T05:58:25.826Z,1007.88
2017-07-30T05:59:25.845Z,1007.96
2017-07-30T06:00:25.880Z,1007.89
2017-07-30T06:01:25.933Z,1007.86
2017-07-30T06:02:25.969Z,1007.8
2017-07-30T06:03:26.010Z,1007.79
2017-07-30T06:04:26.048Z,1007.74
2017-07-30T06:05:26.087Z,1007.73
2017-07-30T06:06:26.123Z,1007.7
2017-07-30T06:07:26.161Z,1007.76
2017-07-30T06:08:26.398Z,1007.76
2017-07-30T06:09:26.223Z,1007.72
2017-07-30T06:10:26.273Z,1007.8
2017-07-30T06:11:26.582Z,1007.87
2017-07-30T06:12:26.356Z,1007.86
2017-07-30T06:13:26.385Z,1007.87
2017-07-30T06:14:26.423Z,1007.84
2017-07-30T06:15:26.467Z,1007.86
2017-07-30T06:16:26.480Z,1008.02
2017-07-30T06:17:26.538Z,1007.92
2017-07-30T06:18:26.584Z,1007.95
2017-07-30T06:19:26.615Z,1007.9
2017-07-30T06:20:26.654Z,1008.06
2017-07-30T06:21:26.697Z,1007.97
2017-07-30T06:22:26.724Z,1007.99
2017-07-30T06:23:26.768Z,1007.99
2017-07-30T06:24:26.794Z,1007.97
2017-07-30T06:25:26.844Z,1007.9
2017-07-30T06:26:26.886Z,1007.9
2017-07-30T06:27:26.912Z,1007.91
2017-07-30T06:28:26.962Z,1007.86
2017-07-30T06:29:27.268Z,1007.89
2017-07-30T06:30:27.044Z,1007.87
2017-07-30T06:31:27.084Z,1007.81
2017-07-30T06:32:27.107Z,1007.84
2017-07-30T06:33:27.167Z,1007.81
2017-07-30T06:34:27.215Z,1007.8
2017-07-30T06:35:27.244Z,1007.77
2017-07-30T06:36:27.282Z,1007.78
2017-07-30T06:37:27.329Z,1007.74
2017-07-30T06:38:27.366Z,1007.65
2017-07-30T06:39:27.411Z,1007.69
2017-07-30T06:40:27.454Z,1007.69
2017-07-30T06:41:27.482Z,1007.71
2017-07-30T06:42:27.534Z,1007.71
2017-07-30T06:43:27.581Z,1007.64
2017-07-30T06:44:27.600Z,1007.68
2017-07-30T06:45:27.746Z,1007.67
2017-07-30T06:46:27.708Z,1007.63
2017-07-30T06:47:27.752Z,1007.68
2017-07-30T06:48:27.792Z,1007.64
2017-07-30T06:49:27.818Z,1007.66
2017-07-30T06:50:27.876Z,1007.65
2017-07-30T06:51:27.925Z,1007.62
2017-07-30T06:52:27.947Z,1007.68
2017-07-30T06:53:28.008Z,1007.57
2017-07-30T06:54:28.052Z,1007.61
2017-07-30T06:55:28.095Z,1007.57
2017-07-30T06:56:28.141Z,1007.61
2017-07-30T06:57:28.184Z,1007.6
2017-07-30T06:58:28.228Z,1007.58
2017-07-30T06:59:28.267Z,1007.56
2017-07-30T07:00:28.464Z,1007.56
2017-07-30T07:01:28.359Z,1007.56
2017-07-30T07:02:28.406Z,1007.51
2017-07-30T07:03:28.447Z,1007.55
2017-07-30T07:04:28.491Z,1007.6
2017-07-30T07:05:28.540Z,1007.45
2017-07-30T07:06:28.564Z,1007.53
2017-07-30T07:07:28.625Z,1007.55
2017-07-30T07:08:28.663Z,1007.51
2017-07-30T07:09:28.717Z,1007.49
2017-07-30T07:10:28.759Z,1007.53
2017-07-30T07:11:28.810Z,1007.59
2017-07-30T07:12:28.850Z,1007.58
2017-07-30T07:13:28.897Z,1007.59
2017-07-30T07:14:28.959Z,1007.63
2017-07-30T07:15:28.972Z,1007.54
2017-07-30T07:16:29.038Z,1007.52
2017-07-30T07:17:29.074Z,1007.49
2017-07-30T07:18:29.121Z,1007.42
2017-07-30T07:19:29.164Z,1007.46
2017-07-30T07:20:29.210Z,1007.46
2017-07-30T07:21:29.252Z,1007.47
2017-07-30T07:22:29.305Z,1007.38
2017-07-30T07:23:29.345Z,1007.45
2017-07-30T07:24:29.396Z,1007.41
2017-07-30T07:25:29.438Z,1007.44
2017-07-30T07:26:29.483Z,1007.45
2017-07-30T07:27:29.529Z,1007.43
2017-07-30T07:28:29.580Z,1007.4
2017-07-30T07:29:29.619Z,1007.37
2017-07-30T07:30:29.644Z,1007.43
2017-07-30T07:31:29.710Z,1007.41
2017-07-30T07:32:29.764Z,1007.35
2017-07-30T07:33:29.802Z,1007.33
2017-07-30T07:34:29.849Z,1007.34
2017-07-30T07:35:29.891Z,1007.3
2017-07-30T07:36:29.936Z,1007.32
2017-07-30T07:37:29.988Z,1007.28
2017-07-30T07:38:30.031Z,1007.27
2017-07-30T07:39:30.065Z,1007.27
2017-07-30T07:40:30.121Z,1007.26
2017-07-30T07:41:30.165Z,1007.25
2017-07-30T07:42:30.213Z,1007.26
2017-07-30T07:43:30.263Z,1007.24
2017-07-30T07:44:30.300Z,1007.19
2017-07-30T07:45:30.455Z,1007.21
2017-07-30T07:46:30.392Z,1007.21
2017-07-30T07:47:30.441Z,1007.24
2017-07-30T07:48:30.476Z,1007.24
2017-07-30T07:49:30.522Z,1007.21
2017-07-30T07:50:30.584Z,1007.1
2017-07-30T07:51:30.630Z,1007.06
2017-07-30T07:52:30.676Z,1007.09
2017-07-30T07:53:30.724Z,1007.12
2017-07-30T07:54:30.770Z,1007.11
2017-07-30T07:55:30.814Z,1007.1
2017-07-30T07:56:30.865Z,1007.14
2017-07-30T07:57:30.905Z,1007.21
2017-07-30T07:58:30.955Z,1007.34
2017-07-30T07:59:30.980Z,1007.41
2017-07-30T08:00:31.046Z,1007.45
2017-07-30T08:01:31.095Z,1007.41
2017-07-30T08:02:31.144Z,1007.42
2017-07-30T08:03:31.746Z,1007.39
2017-07-30T08:04:31.226Z,1007.43
2017-07-30T08:05:31.284Z,1007.46
2017-07-30T08:06:31.329Z,1007.48
2017-07-30T08:07:31.433Z,1007.44
2017-07-30T08:08:31.417Z,1007.49
2017-07-30T08:09:31.472Z,1007.5
2017-07-30T08:10:31.504Z,1007.51
2017-07-30T08:11:31.564Z,1007.47
2017-07-30T08:12:31.633Z,1007.47
2017-07-30T08:13:31.657Z,1007.52
2017-07-30T08:14:31.692Z,1007.47
2017-07-30T08:15:31.758Z,1007.44
2017-07-30T08:16:31.788Z,1007.46
2017-07-30T08:17:31.850Z,1007.36
2017-07-30T08:18:31.904Z,1007.36
2017-07-30T08:19:31.946Z,1007.42
2017-07-30T08:20:31.998Z,1007.4
2017-07-30T08:21:32.041Z,1007.42
2017-07-30T08:22:32.071Z,1007.41
2017-07-30T08:23:32.142Z,1007.47
2017-07-30T08:24:32.173Z,1007.42
2017-07-30T08:25:32.477Z,1007.46
2017-07-30T08:26:32.284Z,1007.53
2017-07-30T08:27:32.378Z,1007.53
2017-07-30T08:28:32.382Z,1007.52
2017-07-30T08:29:32.597Z,1007.48
2017-07-30T08:30:32.728Z,1007.49
2017-07-30T08:31:32.515Z,1007.37
2017-07-30T08:32:32.558Z,1007.41
2017-07-30T08:33:32.630Z,1007.49
2017-07-30T08:34:32.684Z,1007.49
2017-07-30T08:35:32.755Z,1007.45
2017-07-30T08:36:32.774Z,1007.56
2017-07-30T08:37:32.844Z,1007.55
2017-07-30T08:38:32.865Z,1007.59
2017-07-30T08:39:32.914Z,1007.61
2017-07-30T08:40:32.964Z,1007.62
2017-07-30T08:41:33.019Z,1007.26
2017-07-30T08:42:33.063Z,1007.52
2017-07-30T08:43:33.114Z,1007.62
2017-07-30T08:44:33.173Z,1007.53
2017-07-30T08:45:33.411Z,1007.44
2017-07-30T08:46:33.472Z,1007.63
2017-07-30T08:47:33.288Z,1007.42
2017-07-30T08:48:33.364Z,1007.5
2017-07-30T08:49:33.388Z,1007.62
2017-07-30T08:50:33.450Z,1007.62
2017-07-30T08:51:33.498Z,1007.62
2017-07-30T08:52:33.554Z,1007.6
2017-07-30T08:53:33.599Z,1007.57
2017-07-30T08:54:33.632Z,1007.37
2017-07-30T08:55:33.694Z,1007.31
2017-07-30T08:56:33.742Z,1007.53
2017-07-30T08:57:33.795Z,1007.55
2017-07-30T08:58:33.852Z,1007.48
2017-07-30T08:59:33.872Z,1007.49
2017-07-30T09:00:33.927Z,1007.48
2017-07-30T09:01:33.992Z,1007.47
2017-07-30T09:02:34.038Z,1007.38
2017-07-30T09:03:34.094Z,1007.3
2017-07-30T09:04:34.138Z,1007.49
2017-07-30T09:05:34.184Z,1007.38
2017-07-30T09:06:34.221Z,1007.44
2017-07-30T09:07:34.285Z,1007.48
2017-07-30T09:08:34.327Z,1007.44
2017-07-30T09:09:34.389Z,1007.43
2017-07-30T09:10:34.438Z,1007.36
2017-07-30T09:11:34.483Z,1007.34
2017-07-30T09:12:34.541Z,1007.24
2017-07-30T09:13:34.589Z,1007.28
2017-07-30T09:14:34.648Z,1007.24
2017-07-30T09:15:34.694Z,1007.25
2017-07-30T09:16:34.743Z,1007.29
2017-07-30T09:17:34.793Z,1007.01
2017-07-30T09:18:34.833Z,1006.72
2017-07-30T09:19:34.884Z,1007
2017-07-30T09:20:34.950Z,1006.82
2017-07-30T09:21:34.978Z,1006.83
2017-07-30T09:22:35.040Z,1006.81
2017-07-30T09:23:35.096Z,1006.75
2017-07-30T09:24:35.131Z,1006.74
2017-07-30T09:25:35.209Z,1006.86
2017-07-30T09:26:35.247Z,1006.98
2017-07-30T09:27:35.301Z,1006.6
2017-07-30T09:28:35.324Z,1006.79
2017-07-30T09:29:35.393Z,1006.85
2017-07-30T09:30:35.443Z,1006.72
2017-07-30T09:31:35.477Z,1006.84
2017-07-30T09:32:35.537Z,1006.92
2017-07-30T09:33:35.600Z,1006.84
2017-07-30T09:34:35.619Z,1006.83
2017-07-30T09:35:35.686Z,1007.06
2017-07-30T09:36:35.741Z,1007.05
2017-07-30T09:37:35.785Z,1007.15
2017-07-30T09:38:35.823Z,1007.16
2017-07-30T09:39:35.867Z,1007.19
2017-07-30T09:40:35.928Z,1006.99
2017-07-30T09:41:35.982Z,1006.77
2017-07-30T09:42:36.043Z,1006.83
2017-07-30T09:43:36.122Z,1006.4
2017-07-30T09:44:36.126Z,1006.45
2017-07-30T09:45:36.428Z,1006.47
2017-07-30T09:46:36.234Z,1006.26
2017-07-30T09:47:36.281Z,1006.28
2017-07-30T09:48:36.329Z,1006.56
2017-07-30T09:49:36.371Z,1006.63
2017-07-30T09:50:36.415Z,1006.51
2017-07-30T09:51:36.463Z,1006.41
2017-07-30T09:52:36.512Z,1006.44
2017-07-30T09:53:36.572Z,1006.46
2017-07-30T09:54:36.607Z,1006.37
2017-07-30T09:55:36.641Z,1006.3
2017-07-30T09:56:36.698Z,1006.28
2017-07-30T09:57:36.961Z,1006.29
2017-07-30T09:58:36.796Z,1006.34
2017-07-30T09:59:36.847Z,1006.46
2017-07-30T10:00:36.870Z,1006.66
2017-07-30T10:01:36.934Z,1006.6
2017-07-30T10:02:36.977Z,1006.54
2017-07-30T10:03:37.027Z,1006.61
2017-07-30T10:04:37.051Z,1006.61
2017-07-30T10:05:37.117Z,1006.66
2017-07-30T10:06:37.148Z,1006.67
2017-07-30T10:07:37.209Z,1006.63
2017-07-30T10:08:37.256Z,1006.33
2017-07-30T10:09:37.284Z,1006.6
2017-07-30T10:10:37.350Z,1006.67
2017-07-30T10:11:37.397Z,1006.74
2017-07-30T10:12:37.441Z,1006.84
2017-07-30T10:13:37.485Z,1006.46
2017-07-30T10:14:37.543Z,1006.54
2017-07-30T10:15:37.580Z,1006.4
2017-07-30T10:16:37.627Z,1006.83
2017-07-30T10:17:37.675Z,1006.92
2017-07-30T10:18:37.718Z,1006.89
2017-07-30T10:19:37.768Z,1006.97
2017-07-30T10:20:37.816Z,1006.64
2017-07-30T10:21:37.858Z,1006.5
2017-07-30T10:22:37.906Z,1006.82
2017-07-30T10:23:37.950Z,1007.12
2017-07-30T10:24:37.997Z,1006.59
2017-07-30T10:25:38.047Z,1006.64
2017-07-30T10:26:38.091Z,1006.79
2017-07-30T10:27:38.143Z,1006.9
2017-07-30T10:28:38.186Z,1006.7
2017-07-30T10:29:38.233Z,1006.83
2017-07-30T10:30:38.275Z,1006.67
2017-07-30T10:31:38.306Z,1006.64
2017-07-30T10:32:38.371Z,1006.46
2017-07-30T10:33:38.414Z,1006.6
2017-07-30T10:34:38.445Z,1006.63
2017-07-30T10:35:38.505Z,1007.02
2017-07-30T10:36:38.547Z,1006.77
2017-07-30T10:37:38.598Z,1007.11
2017-07-30T10:38:38.645Z,1006.58
2017-07-30T10:39:38.664Z,1006.83
2017-07-30T10:40:38.738Z,1006.92
2017-07-30T10:41:38.779Z,1007.27
2017-07-30T10:42:38.822Z,1007.6
2017-07-30T10:43:38.864Z,1006.57
2017-07-30T10:44:38.911Z,1006.96
2017-07-30T10:45:38.955Z,1007.16
2017-07-30T10:46:38.982Z,1007.35
2017-07-30T10:47:39.045Z,1006.79
2017-07-30T10:48:39.101Z,1007.58
2017-07-30T10:49:39.134Z,1007.42
2017-07-30T10:50:39.180Z,1007.43
2017-07-30T10:51:39.223Z,1007.61
2017-07-30T10:52:39.264Z,1007.31
2017-07-30T10:53:39.315Z,1007.41
2017-07-30T10:54:39.354Z,1007.47
2017-07-30T10:55:39.402Z,1007.83
2017-07-30T10:56:39.446Z,1007.88
2017-07-30T10:57:39.485Z,1007.52
2017-07-30T10:58:39.533Z,1006.53
2017-07-30T10:59:39.580Z,1006.84
2017-07-30T11:00:39.619Z,1006.64
2017-07-30T11:01:39.646Z,1006.86
2017-07-30T11:02:39.708Z,1007.98
2017-07-30T11:03:39.729Z,1006.47
2017-07-30T11:04:39.794Z,1005.91
2017-07-30T11:05:39.833Z,1005.9
2017-07-30T11:06:39.879Z,1005.81
2017-07-30T11:07:39.930Z,1005.71
2017-07-30T11:08:39.968Z,1005.69
2017-07-30T11:09:40.014Z,1005.68
2017-07-30T11:10:40.041Z,1005.69
2017-07-30T11:11:40.096Z,1005.7
2017-07-30T11:12:40.143Z,1005.72
2017-07-30T11:13:40.188Z,1005.66
2017-07-30T11:14:40.232Z,1005.64
2017-07-30T11:15:40.269Z,1005.66
2017-07-30T11:16:40.316Z,1005.71
2017-07-30T11:17:40.348Z,1005.67
2017-07-30T11:18:40.402Z,1005.59
2017-07-30T11:19:40.443Z,1005.64
2017-07-30T11:20:40.485Z,1005.69
2017-07-30T11:21:40.532Z,1005.58
2017-07-30T11:22:40.567Z,1005.58
2017-07-30T11:23:40.613Z,1005.55
2017-07-30T11:24:40.661Z,1005.56
2017-07-30T11:25:40.703Z,1005.62
2017-07-30T11:26:40.742Z,1005.54
2017-07-30T11:27:40.785Z,1005.6
2017-07-30T11:28:40.826Z,1005.56
2017-07-30T11:29:40.872Z,1005.51
2017-07-30T11:30:40.914Z,1005.52
2017-07-30T11:31:40.934Z,1005.49
2017-07-30T11:32:40.998Z,1005.38
2017-07-30T11:33:41.042Z,1005.42
2017-07-30T11:34:41.087Z,1005.47
2017-07-30T11:35:41.127Z,1005.39
2017-07-30T11:36:41.167Z,1005.5
2017-07-30T11:37:41.211Z,1005.41
2017-07-30T11:38:41.242Z,1005.49
2017-07-30T11:39:41.293Z,1005.42
2017-07-30T11:40:41.342Z,1005.32
2017-07-30T11:41:41.381Z,1005.33
2017-07-30T11:42:41.424Z,1005.26
2017-07-30T11:43:41.464Z,1005.29
2017-07-30T11:44:41.507Z,1005.37
2017-07-30T11:45:41.546Z,1005.28
2017-07-30T11:46:41.568Z,1005.31
2017-07-30T11:47:41.633Z,1005.28
2017-07-30T11:48:41.672Z,1005.28
2017-07-30T11:49:41.715Z,1005.27
2017-07-30T11:50:41.740Z,1005.27
2017-07-30T11:51:41.798Z,1005.28
2017-07-30T11:52:41.841Z,1005.27
2017-07-30T11:53:41.889Z,1005.27
2017-07-30T11:54:41.920Z,1005.28
2017-07-30T11:55:41.971Z,1005.18
2017-07-30T11:56:42.009Z,1005.33
2017-07-30T11:57:42.047Z,1005.46
2017-07-30T11:58:42.091Z,1005.29
2017-07-30T11:59:42.134Z,1005.43
2017-07-30T12:00:42.175Z,1005.34
2017-07-30T12:01:42.219Z,1005.32
2017-07-30T12:02:42.244Z,1005.33
2017-07-30T12:03:42.297Z,1005.24
2017-07-30T12:04:42.343Z,1005.24
2017-07-30T12:05:42.381Z,1005.31
2017-07-30T12:06:42.425Z,1005.34
2017-07-30T12:07:42.466Z,1005.36
2017-07-30T12:08:42.506Z,1005.22